createdAt,value
2022-08-11T00:00:00.000Z,8.34
2022-08-11T00:15:00.000Z,8.24
2022-08-11T00:30:00.000Z,8.71
2022-08-11T00:45:00.000Z,8.52
2022-08-11T01:00:00.000Z,7.93
2022-08-11T01:15:00.000Z,8.34
2022-08-11T01:30:00.000Z,9.62
2022-08-11T01:45:00.000Z,8.52
2022-08-11T02:00:00.000Z,9.31
2022-08-11T02:15:00.000Z,9.71
2022-08-11T02:30:00.000Z,9.98
2022-08-11T02:45:00.000Z,10.4
2022-08-11T03:00:00.000Z,12
2022-08-11T03:15:00.000Z,9.87
2022-08-11T03:30:00.000Z,10.26
2022-08-11T03:45:00.000Z,9.87
2022-08-11T04:00:00.000Z,9.72
2022-08-11T04:15:00.000Z,10.27
2022-08-11T04:30:00.000Z,9.56
2022-08-11T04:45:00.000Z,10.15
2022-08-11T05:00:00.000Z,10.92
2022-08-11T05:15:00.000Z,11.38
2022-08-11T05:30:00.000Z,11.64
2022-08-11T05:45:00.000Z,10.95
2022-08-11T06:00:00.000Z,10.62
2022-08-11T06:15:00.000Z,9.4
2022-08-11T06:30:00.000Z,7.98
2022-08-11T06:45:00.000Z,8.21
2022-08-11T07:00:00.000Z,8.89
2022-08-11T07:15:00.000Z,7.24
2022-08-11T07:30:00.000Z,7.05
2022-08-11T07:45:00.000Z,6.15
2022-08-11T08:00:00.000Z,5.64
2022-08-11T08:15:00.000Z,5.39
2022-08-11T08:30:00.000Z,5.15
2022-08-11T08:45:00.000Z,5.35
2022-08-11T09:00:00.000Z,4.93
2022-08-11T09:15:00.000Z,5.13
2022-08-11T09:30:00.000Z,5.65
2022-08-11T09:45:00.000Z,5.75
2022-08-11T10:00:00.000Z,5.45
2022-08-11T10:15:00.000Z,4.99
2022-08-11T10:30:00.000Z,5.26
2022-08-11T10:45:00.000Z,5.48
2022-08-11T11:00:00.000Z,4.91
2022-08-11T11:15:00.000Z,4.6
2022-08-11T11:30:00.000Z,4.8
2022-08-11T12:00:00.000Z,4
2022-08-11T12:00:00.000Z,4.6
2022-08-11T12:15:00.000Z,4.41
2022-08-11T12:30:00.000Z,4.53
2022-08-11T12:45:00.000Z,4.26
2022-08-11T13:00:00.000Z,4.31
2022-08-11T13:15:00.000Z,4.09
2022-08-11T13:30:00.000Z,4.22
2022-08-11T13:45:00.000Z,4.12
2022-08-11T14:00:00.000Z,4.2
2022-08-11T14:15:00.000Z,4.19
2022-08-11T14:30:00.000Z,4.29
2022-08-11T14:45:00.000Z,4.38
2022-08-11T15:00:00.000Z,4.38
2022-08-11T15:15:00.000Z,4.38
2022-08-11T15:30:00.000Z,4.67
2022-08-11T15:45:00.000Z,4.28
2022-08-11T16:00:00.000Z,4.39
2022-08-11T16:15:00.000Z,4.84
2022-08-11T16:30:00.000Z,4.6
2022-08-11T16:45:00.000Z,4.4
2022-08-11T17:00:00.000Z,4.24
2022-08-11T17:15:00.000Z,4.18
2022-08-11T17:30:00.000Z,4.15
2022-08-11T17:45:00.000Z,4.26
2022-08-11T18:00:00.000Z,4.73
2022-08-11T18:15:00.000Z,4.31
2022-08-11T18:30:00.000Z,4.38
2022-08-11T18:45:00.000Z,4.89
2022-08-11T19:00:00.000Z,4.26
2022-08-11T19:15:00.000Z,4.71
2022-08-11T19:30:00.000Z,5.01
2022-08-11T19:45:00.000Z,4.54
2022-08-11T20:00:00.000Z,4.46
2022-08-11T20:15:00.000Z,4.41
2022-08-11T20:30:00.000Z,4.58
2022-08-11T20:45:00.000Z,5.18
2022-08-11T21:00:00.000Z,5.18
2022-08-11T21:30:00.000Z,7
2022-08-11T21:30:00.000Z,4.73
2022-08-11T21:45:00.000Z,4.42
2022-08-11T22:00:00.000Z,4.51
2022-08-11T22:15:00.000Z,4.65
2022-08-11T22:30:00.000Z,4.44
2022-08-11T22:45:00.000Z,4.55
2022-08-11T23:00:00.000Z,4.64
2022-08-11T23:15:00.000Z,4.54
2022-08-11T23:30:00.000Z,4.56
2022-08-11T23:45:00.000Z,5.72
